sensor_id;sensor_type;location;lat;lon;timestamp;pressure;altitude;pressure_sealevel;temperature;humidity
21869;BME280;11099;41.564;23.296;2023-08-20T00:00:10;97418.47;;;25.63;41.37
21869;BME280;11099;41.564;23.296;2023-08-20T00:02:37;97401.88;;;25.51;40.52
21869;BME280;11099;41.564;23.296;2023-08-20T00:05:07;97403.59;;;25.71;40.65
21869;BME280;11099;41.564;23.296;2023-08-20T00:07:33;97369.88;;;25.55;40.45
21869;BME280;11099;41.564;23.296;2023-08-20T00:09:59;97494.25;;;26.13;40.04
21869;BME280;11099;41.564;23.296;2023-08-20T00:12:25;97477.06;;;26.16;39.77
21869;BME280;11099;41.564;23.296;2023-08-20T00:14:56;97486.19;;;26.33;39.69
21869;BME280;11099;41.564;23.296;2023-08-20T00:17:24;97500.66;;;26.30;39.91
21869;BME280;11099;41.564;23.296;2023-08-20T00:19:53;97490.66;;;26.20;40.62
21869;BME280;11099;41.564;23.296;2023-08-20T00:22:22;97467.59;;;26.24;40.03
21869;BME280;11099;41.564;23.296;2023-08-20T00:24:48;97489.50;;;26.21;40.20
21869;BME280;11099;41.564;23.296;2023-08-20T00:27:14;97464.13;;;25.93;40.36
21869;BME280;11099;41.564;23.296;2023-08-20T00:29:39;97376.00;;;25.32;40.65
21869;BME280;11099;41.564;23.296;2023-08-20T00:32:05;97310.47;;;24.70;40.57
21869;BME280;11099;41.564;23.296;2023-08-20T00:34:30;97425.19;;;25.55;40.45
21869;BME280;11099;41.564;23.296;2023-08-20T00:36:56;97442.28;;;25.93;39.52
21869;BME280;11099;41.564;23.296;2023-08-20T00:39:21;97417.19;;;25.75;40.02
21869;BME280;11099;41.564;23.296;2023-08-20T00:41:47;97415.28;;;25.68;39.88
21869;BME280;11099;41.564;23.296;2023-08-20T00:44:12;97362.06;;;25.60;39.68
21869;BME280;11099;41.564;23.296;2023-08-20T00:46:38;97392.22;;;25.42;40.40
21869;BME280;11099;41.564;23.296;2023-08-20T00:49:04;97383.50;;;25.24;40.78
21869;BME280;11099;41.564;23.296;2023-08-20T00:51:33;97345.13;;;24.66;41.44
21869;BME280;11099;41.564;23.296;2023-08-20T00:54:00;97435.88;;;25.39;41.19
21869;BME280;11099;41.564;23.296;2023-08-20T00:56:26;97394.31;;;25.31;41.41
21869;BME280;11099;41.564;23.296;2023-08-20T00:58:53;97374.81;;;25.67;40.69
21869;BME280;11099;41.564;23.296;2023-08-20T01:01:20;97428.41;;;25.46;42.28
21869;BME280;11099;41.564;23.296;2023-08-20T01:03:45;97453.72;;;25.02;43.04
21869;BME280;11099;41.564;23.296;2023-08-20T01:06:25;97435.13;;;25.35;41.93
21869;BME280;11099;41.564;23.296;2023-08-20T01:09:01;97470.31;;;25.18;42.98
21869;BME280;11099;41.564;23.296;2023-08-20T01:11:37;97426.16;;;24.93;44.20
21869;BME280;11099;41.564;23.296;2023-08-20T01:14:14;97412.16;;;24.94;45.64
21869;BME280;11099;41.564;23.296;2023-08-20T01:16:40;97468.59;;;25.39;46.00
21869;BME280;11099;41.564;23.296;2023-08-20T01:19:08;97425.56;;;24.71;47.40
21869;BME280;11099;41.564;23.296;2023-08-20T01:21:39;97453.00;;;24.94;47.93
21869;BME280;11099;41.564;23.296;2023-08-20T01:27:08;97418.47;;;24.84;47.11
21869;BME280;11099;41.564;23.296;2023-08-20T01:29:36;97421.75;;;25.10;46.83
21869;BME280;11099;41.564;23.296;2023-08-20T01:32:04;97386.19;;;24.31;48.23
21869;BME280;11099;41.564;23.296;2023-08-20T01:34:30;97374.53;;;24.30;48.51
21869;BME280;11099;41.564;23.296;2023-08-20T01:36:56;97357.69;;;24.50;47.85
21869;BME280;11099;41.564;23.296;2023-08-20T01:39:21;97455.00;;;24.87;49.58
21869;BME280;11099;41.564;23.296;2023-08-20T01:41:47;97405.28;;;24.79;48.92
21869;BME280;11099;41.564;23.296;2023-08-20T01:44:13;97425.13;;;24.80;49.02
21869;BME280;11099;41.564;23.296;2023-08-20T01:46:38;97424.88;;;25.05;47.96
21869;BME280;11099;41.564;23.296;2023-08-20T01:49:04;97381.72;;;24.62;47.95
21869;BME280;11099;41.564;23.296;2023-08-20T01:51:29;97379.59;;;24.84;46.88
21869;BME280;11099;41.564;23.296;2023-08-20T01:53:55;97458.50;;;25.32;44.43
21869;BME280;11099;41.564;23.296;2023-08-20T01:56:20;97346.78;;;24.57;42.70
21869;BME280;11099;41.564;23.296;2023-08-20T01:58:45;97406.25;;;25.07;41.88
21869;BME280;11099;41.564;23.296;2023-08-20T02:01:11;97415.88;;;25.15;41.70
21869;BME280;11099;41.564;23.296;2023-08-20T02:03:36;97389.75;;;24.76;41.83
21869;BME280;11099;41.564;23.296;2023-08-20T02:06:05;97384.38;;;24.69;41.68
21869;BME280;11099;41.564;23.296;2023-08-20T02:08:30;97482.50;;;25.07;42.72
21869;BME280;11099;41.564;23.296;2023-08-20T02:11:00;97417.03;;;24.69;42.94
21869;BME280;11099;41.564;23.296;2023-08-20T02:13:26;97378.47;;;24.26;45.07
21869;BME280;11099;41.564;23.296;2023-08-20T02:15:59;97428.03;;;24.55;46.71
21869;BME280;11099;41.564;23.296;2023-08-20T02:18:25;97397.06;;;24.34;46.85
21869;BME280;11099;41.564;23.296;2023-08-20T02:20:50;97433.09;;;24.53;47.99
21869;BME280;11099;41.564;23.296;2023-08-20T02:23:16;97453.38;;;24.96;47.68
21869;BME280;11099;41.564;23.296;2023-08-20T02:25:43;97406.22;;;24.62;48.23
21869;BME280;11099;41.564;23.296;2023-08-20T02:28:08;97407.25;;;24.79;48.21
21869;BME280;11099;41.564;23.296;2023-08-20T02:30:40;97457.66;;;24.94;47.57
21869;BME280;11099;41.564;23.296;2023-08-20T02:33:05;97392.06;;;24.26;48.19
21869;BME280;11099;41.564;23.296;2023-08-20T02:35:31;97498.84;;;25.00;47.99
21869;BME280;11099;41.564;23.296;2023-08-20T02:37:56;97436.34;;;24.30;49.04
21869;BME280;11099;41.564;23.296;2023-08-20T02:40:22;97473.66;;;24.29;50.68
21869;BME280;11099;41.564;23.296;2023-08-20T02:42:47;97451.84;;;24.33;51.32
21869;BME280;11099;41.564;23.296;2023-08-20T02:45:13;97439.81;;;24.37;51.19
21869;BME280;11099;41.564;23.296;2023-08-20T02:47:38;97395.97;;;24.21;51.02
21869;BME280;11099;41.564;23.296;2023-08-20T02:50:04;97454.59;;;24.36;51.39
21869;BME280;11099;41.564;23.296;2023-08-20T02:52:30;97456.88;;;24.45;50.95
21869;BME280;11099;41.564;23.296;2023-08-20T02:54:55;97391.00;;;24.09;49.83
21869;BME280;11099;41.564;23.296;2023-08-20T02:57:20;97438.31;;;24.81;49.14
21869;BME280;11099;41.564;23.296;2023-08-20T02:59:46;97459.47;;;24.63;50.30
21869;BME280;11099;41.564;23.296;2023-08-20T03:02:12;97433.56;;;24.33;50.65
21869;BME280;11099;41.564;23.296;2023-08-20T03:04:37;97443.06;;;24.74;50.52
21869;BME280;11099;41.564;23.296;2023-08-20T03:07:03;97417.25;;;24.33;51.10
21869;BME280;11099;41.564;23.296;2023-08-20T03:09:28;97452.22;;;24.42;51.67
21869;BME280;11099;41.564;23.296;2023-08-20T03:11:54;97465.47;;;24.40;52.19
21869;BME280;11099;41.564;23.296;2023-08-20T03:14:19;97493.69;;;24.64;52.17
21869;BME280;11099;41.564;23.296;2023-08-20T03:16:45;97454.59;;;24.29;52.90
21869;BME280;11099;41.564;23.296;2023-08-20T03:19:10;97445.44;;;23.98;53.90
21869;BME280;11099;41.564;23.296;2023-08-20T03:21:36;97522.22;;;24.31;54.64
21869;BME280;11099;41.564;23.296;2023-08-20T03:24:01;97465.59;;;24.04;54.81
21869;BME280;11099;41.564;23.296;2023-08-20T03:26:27;97417.63;;;23.55;55.74
21869;BME280;11099;41.564;23.296;2023-08-20T03:28:52;97392.78;;;23.56;55.91
21869;BME280;11099;41.564;23.296;2023-08-20T03:31:18;97392.75;;;23.60;55.66
21869;BME280;11099;41.564;23.296;2023-08-20T03:33:43;97456.34;;;23.91;55.92
21869;BME280;11099;41.564;23.296;2023-08-20T03:36:09;97489.72;;;23.95;56.59
21869;BME280;11099;41.564;23.296;2023-08-20T03:38:34;97384.97;;;23.62;55.71
21869;BME280;11099;41.564;23.296;2023-08-20T03:41:00;97465.28;;;23.88;56.13
21869;BME280;11099;41.564;23.296;2023-08-20T03:43:27;97524.19;;;24.23;57.06
21869;BME280;11099;41.564;23.296;2023-08-20T03:45:55;97444.78;;;23.69;57.42
21869;BME280;11099;41.564;23.296;2023-08-20T03:48:24;97483.13;;;23.92;58.05
21869;BME280;11099;41.564;23.296;2023-08-20T03:50:50;97460.97;;;23.98;56.97
21869;BME280;11099;41.564;23.296;2023-08-20T03:53:16;97494.78;;;23.97;58.55
21869;BME280;11099;41.564;23.296;2023-08-20T03:55:41;97449.88;;;23.38;59.69
21869;BME280;11099;41.564;23.296;2023-08-20T03:58:07;97451.03;;;23.48;59.35
21869;BME280;11099;41.564;23.296;2023-08-20T04:00:34;97446.03;;;23.07;59.73
21869;BME280;11099;41.564;23.296;2023-08-20T04:03:00;97452.22;;;23.33;60.00
21869;BME280;11099;41.564;23.296;2023-08-20T04:05:25;97423.94;;;23.05;60.34
21869;BME280;11099;41.564;23.296;2023-08-20T04:07:51;97382.41;;;23.23;58.70
21869;BME280;11099;41.564;23.296;2023-08-20T04:10:16;97444.78;;;23.55;59.27
21869;BME280;11099;41.564;23.296;2023-08-20T04:12:42;97456.13;;;23.14;60.52
21869;BME280;11099;41.564;23.296;2023-08-20T04:15:07;97451.09;;;23.16;60.52
21869;BME280;11099;41.564;23.296;2023-08-20T04:17:33;97477.44;;;23.48;59.66
21869;BME280;11099;41.564;23.296;2023-08-20T04:19:58;97496.81;;;23.64;60.31
21869;BME280;11099;41.564;23.296;2023-08-20T04:22:24;97516.19;;;23.73;60.38
21869;BME280;11099;41.564;23.296;2023-08-20T04:24:50;97479.38;;;23.47;60.40
21869;BME280;11099;41.564;23.296;2023-08-20T04:27:17;97494.47;;;23.70;59.10
21869;BME280;11099;41.564;23.296;2023-08-20T04:29:44;97484.38;;;23.59;59.76
21869;BME280;11099;41.564;23.296;2023-08-20T04:32:09;97516.94;;;23.91;59.98
21869;BME280;11099;41.564;23.296;2023-08-20T04:34:35;97516.56;;;23.86;59.83
21869;BME280;11099;41.564;23.296;2023-08-20T04:37:03;97472.78;;;23.52;60.03
21869;BME280;11099;41.564;23.296;2023-08-20T04:39:36;97507.28;;;23.80;59.85
21869;BME280;11099;41.564;23.296;2023-08-20T04:42:05;97385.16;;;23.19;59.85
21869;BME280;11099;41.564;23.296;2023-08-20T04:44:30;97535.81;;;24.31;58.82
21869;BME280;11099;41.564;23.296;2023-08-20T04:46:56;97490.19;;;24.60;56.89
21869;BME280;11099;41.564;23.296;2023-08-20T04:49:21;97443.66;;;24.43;55.77
21869;BME280;11099;41.564;23.296;2023-08-20T04:51:47;97515.56;;;25.02;55.69
21869;BME280;11099;41.564;23.296;2023-08-20T04:54:12;97500.31;;;24.56;57.00
21869;BME280;11099;41.564;23.296;2023-08-20T04:56:38;97472.47;;;24.30;57.74
21869;BME280;11099;41.564;23.296;2023-08-20T04:59:03;97460.81;;;24.37;57.22
21869;BME280;11099;41.564;23.296;2023-08-20T05:01:29;97441.78;;;24.85;54.99
21869;BME280;11099;41.564;23.296;2023-08-20T05:03:54;97513.78;;;25.74;53.53
21869;BME280;11099;41.564;23.296;2023-08-20T05:06:20;97456.88;;;26.10;51.17
21869;BME280;11099;41.564;23.296;2023-08-20T05:08:45;97505.31;;;26.33;50.64
21869;BME280;11099;41.564;23.296;2023-08-20T05:11:11;97495.50;;;26.36;50.60
21869;BME280;11099;41.564;23.296;2023-08-20T05:13:36;97549.16;;;27.30;48.92
21869;BME280;11099;41.564;23.296;2023-08-20T05:16:02;97479.50;;;26.92;47.67
21869;BME280;11099;41.564;23.296;2023-08-20T05:18:27;97557.44;;;27.27;48.59
21869;BME280;11099;41.564;23.296;2023-08-20T05:20:53;97541.84;;;27.24;47.93
21869;BME280;11099;41.564;23.296;2023-08-20T05:23:18;97469.09;;;27.10;47.53
21869;BME280;11099;41.564;23.296;2023-08-20T05:25:44;97544.03;;;27.79;46.36
21869;BME280;11099;41.564;23.296;2023-08-20T05:28:09;97538.00;;;28.28;45.23
21869;BME280;11099;41.564;23.296;2023-08-20T05:30:35;97551.25;;;27.23;47.73
21869;BME280;11099;41.564;23.296;2023-08-20T05:33:00;97505.91;;;27.69;46.24
21869;BME280;11099;41.564;23.296;2023-08-20T05:35:26;97451.78;;;26.93;47.11
21869;BME280;11099;41.564;23.296;2023-08-20T05:37:52;97546.66;;;28.26;45.27
21869;BME280;11099;41.564;23.296;2023-08-20T05:40:17;97533.78;;;28.63;44.82
21869;BME280;11099;41.564;23.296;2023-08-20T05:42:43;97478.16;;;28.30;43.57
21869;BME280;11099;41.564;23.296;2023-08-20T05:45:09;97464.38;;;27.77;44.65
21869;BME280;11099;41.564;23.296;2023-08-20T05:47:34;97476.41;;;28.20;43.33
21869;BME280;11099;41.564;23.296;2023-08-20T05:50:00;97507.78;;;28.51;43.27
21869;BME280;11099;41.564;23.296;2023-08-20T05:52:25;97562.34;;;28.98;43.54
21869;BME280;11099;41.564;23.296;2023-08-20T05:54:51;97574.78;;;29.03;43.71
21869;BME280;11099;41.564;23.296;2023-08-20T05:57:16;97435.66;;;27.66;44.18
21869;BME280;11099;41.564;23.296;2023-08-20T05:59:42;97450.41;;;28.80;42.77
21869;BME280;11099;41.564;23.296;2023-08-20T06:02:07;97488.13;;;29.54;40.81
21869;BME280;11099;41.564;23.296;2023-08-20T06:04:33;97551.09;;;30.03;41.13
21869;BME280;11099;41.564;23.296;2023-08-20T06:06:58;97558.31;;;29.68;41.66
21869;BME280;11099;41.564;23.296;2023-08-20T06:09:24;97522.78;;;30.06;40.15
21869;BME280;11099;41.564;23.296;2023-08-20T06:11:49;97562.34;;;28.98;42.88
21869;BME280;11099;41.564;23.296;2023-08-20T06:14:16;97540.00;;;29.00;42.35
21869;BME280;11099;41.564;23.296;2023-08-20T06:16:42;97577.53;;;29.52;42.41
21869;BME280;11099;41.564;23.296;2023-08-20T06:19:07;97545.66;;;29.25;42.56
21869;BME280;11099;41.564;23.296;2023-08-20T06:21:33;97435.38;;;27.60;44.68
21869;BME280;11099;41.564;23.296;2023-08-20T06:23:59;97475.69;;;28.16;44.25
21869;BME280;11099;41.564;23.296;2023-08-20T06:26:25;97491.09;;;28.46;43.79
21869;BME280;11099;41.564;23.296;2023-08-20T06:28:50;97501.75;;;29.58;42.08
21869;BME280;11099;41.564;23.296;2023-08-20T06:31:16;97499.31;;;29.31;41.82
21869;BME280;11099;41.564;23.296;2023-08-20T06:33:41;97538.09;;;29.62;41.85
21869;BME280;11099;41.564;23.296;2023-08-20T06:36:07;97539.97;;;29.94;41.62
21869;BME280;11099;41.564;23.296;2023-08-20T06:38:32;97528.03;;;30.01;40.32
21869;BME280;11099;41.564;23.296;2023-08-20T06:40:58;97487.09;;;30.06;40.25
21869;BME280;11099;41.564;23.296;2023-08-20T06:43:23;97483.69;;;30.69;38.74
21869;BME280;11099;41.564;23.296;2023-08-20T06:45:49;97516.31;;;30.93;38.35
21869;BME280;11099;41.564;23.296;2023-08-20T06:48:14;97514.97;;;31.10;37.16
21869;BME280;11099;41.564;23.296;2023-08-20T06:50:41;97584.44;;;31.96;37.11
21869;BME280;11099;41.564;23.296;2023-08-20T06:53:07;97564.22;;;31.17;37.92
21869;BME280;11099;41.564;23.296;2023-08-20T06:55:32;97519.63;;;30.88;38.59
21869;BME280;11099;41.564;23.296;2023-08-20T06:57:58;97529.25;;;31.31;37.76
21869;BME280;11099;41.564;23.296;2023-08-20T07:00:23;97500.44;;;31.57;37.46
21869;BME280;11099;41.564;23.296;2023-08-20T07:02:49;97471.41;;;31.09;37.62
21869;BME280;11099;41.564;23.296;2023-08-20T07:05:14;97589.78;;;32.35;37.08
21869;BME280;11099;41.564;23.296;2023-08-20T07:07:40;97495.50;;;32.09;36.38
21869;BME280;11099;41.564;23.296;2023-08-20T07:10:07;97471.22;;;31.72;37.00
21869;BME280;11099;41.564;23.296;2023-08-20T07:12:32;97460.31;;;31.82;36.74
21869;BME280;11099;41.564;23.296;2023-08-20T07:14:58;97541.09;;;32.94;35.93
21869;BME280;11099;41.564;23.296;2023-08-20T07:17:23;97464.75;;;32.10;36.16
21869;BME280;11099;41.564;23.296;2023-08-20T07:19:49;97554.69;;;32.57;35.55
21869;BME280;11099;41.564;23.296;2023-08-20T07:22:15;97470.59;;;30.74;37.94
21869;BME280;11099;41.564;23.296;2023-08-20T07:24:40;97458.09;;;31.55;37.01
21869;BME280;11099;41.564;23.296;2023-08-20T07:27:06;97569.97;;;32.49;35.54
21869;BME280;11099;41.564;23.296;2023-08-20T07:29:36;97459.88;;;31.27;35.97
21869;BME280;11099;41.564;23.296;2023-08-20T07:32:02;97528.00;;;32.45;34.54
21869;BME280;11099;41.564;23.296;2023-08-20T07:34:28;97516.97;;;32.45;34.56
21869;BME280;11099;41.564;23.296;2023-08-20T07:36:54;97522.44;;;32.36;35.26
21869;BME280;11099;41.564;23.296;2023-08-20T07:39:20;97492.22;;;32.54;34.01
21869;BME280;11099;41.564;23.296;2023-08-20T07:41:45;97388.84;;;31.56;35.37
21869;BME280;11099;41.564;23.296;2023-08-20T07:44:11;97508.47;;;32.08;33.96
21869;BME280;11099;41.564;23.296;2023-08-20T07:46:36;97401.59;;;31.06;35.56
21869;BME280;11099;41.564;23.296;2023-08-20T07:49:01;97426.22;;;31.44;35.11
21869;BME280;11099;41.564;23.296;2023-08-20T07:51:27;97431.47;;;31.95;35.06
21869;BME280;11099;41.564;23.296;2023-08-20T07:53:52;97509.94;;;32.44;34.30
21869;BME280;11099;41.564;23.296;2023-08-20T07:56:18;97427.88;;;31.07;35.00
21869;BME280;11099;41.564;23.296;2023-08-20T07:58:44;97472.50;;;32.03;34.04
21869;BME280;11099;41.564;23.296;2023-08-20T08:01:09;97486.63;;;32.36;34.17
21869;BME280;11099;41.564;23.296;2023-08-20T08:03:35;97527.78;;;33.01;33.92
21869;BME280;11099;41.564;23.296;2023-08-20T08:06:00;97464.00;;;31.88;34.03
21869;BME280;11099;41.564;23.296;2023-08-20T08:08:26;97458.69;;;31.37;33.05
21869;BME280;11099;41.564;23.296;2023-08-20T08:10:51;97476.78;;;32.25;33.80
21869;BME280;11099;41.564;23.296;2023-08-20T08:13:22;97413.41;;;31.94;33.92
21869;BME280;11099;41.564;23.296;2023-08-20T08:15:47;97463.75;;;32.48;31.99
21869;BME280;11099;41.564;23.296;2023-08-20T08:18:13;97518.13;;;32.97;31.74
21869;BME280;11099;41.564;23.296;2023-08-20T08:20:39;97478.81;;;32.74;33.20
21869;BME280;11099;41.564;23.296;2023-08-20T08:23:04;97451.44;;;32.40;32.40
21869;BME280;11099;41.564;23.296;2023-08-20T08:25:30;97425.16;;;32.48;31.67
21869;BME280;11099;41.564;23.296;2023-08-20T08:27:55;97453.41;;;31.64;32.65
21869;BME280;11099;41.564;23.296;2023-08-20T08:30:21;97438.59;;;32.46;32.06
21869;BME280;11099;41.564;23.296;2023-08-20T08:32:47;97489.53;;;32.72;32.00
21869;BME280;11099;41.564;23.296;2023-08-20T08:35:12;97456.41;;;32.54;30.49
21869;BME280;11099;41.564;23.296;2023-08-20T08:37:38;97464.38;;;32.61;30.44
21869;BME280;11099;41.564;23.296;2023-08-20T08:40:04;97524.31;;;33.28;30.08
21869;BME280;11099;41.564;23.296;2023-08-20T08:42:32;97412.88;;;32.89;28.86
21869;BME280;11099;41.564;23.296;2023-08-20T08:44:59;97510.41;;;34.05;28.13
21869;BME280;11099;41.564;23.296;2023-08-20T08:47:25;97423.94;;;33.63;28.30
21869;BME280;11099;41.564;23.296;2023-08-20T08:49:52;97418.63;;;32.64;29.34
21869;BME280;11099;41.564;23.296;2023-08-20T08:52:21;97414.25;;;33.12;28.19
21869;BME280;11099;41.564;23.296;2023-08-20T08:54:48;97394.38;;;33.08;29.16
21869;BME280;11099;41.564;23.296;2023-08-20T08:57:14;97402.03;;;33.50;28.60
21869;BME280;11099;41.564;23.296;2023-08-20T08:59:41;97480.06;;;33.60;28.62
21869;BME280;11099;41.564;23.296;2023-08-20T09:02:11;97503.50;;;33.46;28.78
21869;BME280;11099;41.564;23.296;2023-08-20T09:04:41;97365.97;;;32.80;27.98
21869;BME280;11099;41.564;23.296;2023-08-20T09:07:11;97424.41;;;33.61;28.05
21869;BME280;11099;41.564;23.296;2023-08-20T09:09:37;97441.06;;;33.94;28.75
21869;BME280;11099;41.564;23.296;2023-08-20T09:12:15;97494.94;;;34.50;28.98
21869;BME280;11099;41.564;23.296;2023-08-20T09:14:49;97422.41;;;33.62;28.20
21869;BME280;11099;41.564;23.296;2023-08-20T09:17:16;97497.97;;;34.01;28.92
21869;BME280;11099;41.564;23.296;2023-08-20T09:19:43;97410.09;;;33.81;28.68
21869;BME280;11099;41.564;23.296;2023-08-20T09:22:14;97453.47;;;34.08;29.07
21869;BME280;11099;41.564;23.296;2023-08-20T09:24:44;97481.56;;;34.58;28.37
21869;BME280;11099;41.564;23.296;2023-08-20T09:27:10;97402.75;;;34.29;28.43
21869;BME280;11099;41.564;23.296;2023-08-20T09:29:50;97409.59;;;34.01;28.17
21869;BME280;11099;41.564;23.296;2023-08-20T09:35:28;97482.91;;;34.11;29.23
21869;BME280;11099;41.564;23.296;2023-08-20T09:37:59;97481.72;;;34.88;28.27
21869;BME280;11099;41.564;23.296;2023-08-20T09:40:26;97461.91;;;34.89;28.19
21869;BME280;11099;41.564;23.296;2023-08-20T09:42:53;97395.47;;;34.08;28.72
21869;BME280;11099;41.564;23.296;2023-08-20T09:45:20;97377.25;;;33.83;28.52
21869;BME280;11099;41.564;23.296;2023-08-20T09:47:48;97407.91;;;34.03;28.65
21869;BME280;11099;41.564;23.296;2023-08-20T09:50:17;97379.94;;;34.20;28.85
21869;BME280;11099;41.564;23.296;2023-08-20T09:52:57;97352.28;;;33.77;28.38
21869;BME280;11099;41.564;23.296;2023-08-20T09:55:28;97321.88;;;33.26;28.10
21869;BME280;11099;41.564;23.296;2023-08-20T09:57:55;97323.72;;;33.20;28.72
21869;BME280;11099;41.564;23.296;2023-08-20T10:00:22;97404.06;;;34.01;27.95
21869;BME280;11099;41.564;23.296;2023-08-20T10:02:48;97450.53;;;34.87;26.74
21869;BME280;11099;41.564;23.296;2023-08-20T10:05:14;97346.25;;;33.97;27.71
21869;BME280;11099;41.564;23.296;2023-08-20T10:07:42;97427.28;;;34.70;28.42
21869;BME280;11099;41.564;23.296;2023-08-20T10:10:09;97419.41;;;34.77;28.35
21869;BME280;11099;41.564;23.296;2023-08-20T10:12:39;97400.41;;;34.94;27.89
21869;BME280;11099;41.564;23.296;2023-08-20T10:15:08;97384.66;;;34.62;28.03
21869;BME280;11099;41.564;23.296;2023-08-20T10:17:37;97380.00;;;34.34;29.04
21869;BME280;11099;41.564;23.296;2023-08-20T10:20:04;97462.97;;;35.40;27.53
21869;BME280;11099;41.564;23.296;2023-08-20T10:22:37;97455.69;;;35.42;25.98
21869;BME280;11099;41.564;23.296;2023-08-20T10:25:10;97428.06;;;34.94;25.74
21869;BME280;11099;41.564;23.296;2023-08-20T10:27:38;97449.78;;;34.86;26.42
21869;BME280;11099;41.564;23.296;2023-08-20T10:30:17;97360.59;;;34.53;26.45
21869;BME280;11099;41.564;23.296;2023-08-20T10:32:53;97401.50;;;34.97;24.88
21869;BME280;11099;41.564;23.296;2023-08-20T10:35:26;97393.22;;;34.88;25.39
21869;BME280;11099;41.564;23.296;2023-08-20T10:38:05;97453.69;;;35.04;27.57
21869;BME280;11099;41.564;23.296;2023-08-20T10:40:56;97452.72;;;35.31;27.72
21869;BME280;11099;41.564;23.296;2023-08-20T10:48:38;97419.78;;;34.94;28.02
21869;BME280;11099;41.564;23.296;2023-08-20T10:51:46;97446.50;;;34.97;28.23
21869;BME280;11099;41.564;23.296;2023-08-20T10:56:44;97446.25;;;34.62;26.73
21869;BME280;11099;41.564;23.296;2023-08-20T10:59:21;97409.09;;;34.78;26.73
21869;BME280;11099;41.564;23.296;2023-08-20T11:01:50;97386.16;;;35.10;24.63
21869;BME280;11099;41.564;23.296;2023-08-20T11:04:18;97386.00;;;34.90;26.14
21869;BME280;11099;41.564;23.296;2023-08-20T11:06:45;97418.91;;;35.51;26.56
21869;BME280;11099;41.564;23.296;2023-08-20T11:09:11;97379.56;;;35.47;26.67
21869;BME280;11099;41.564;23.296;2023-08-20T11:11:40;97372.81;;;35.62;26.66
21869;BME280;11099;41.564;23.296;2023-08-20T11:14:11;97400.41;;;35.72;27.04
21869;BME280;11099;41.564;23.296;2023-08-20T11:16:39;97327.91;;;35.44;26.95
21869;BME280;11099;41.564;23.296;2023-08-20T11:19:05;97263.88;;;35.06;27.01
21869;BME280;11099;41.564;23.296;2023-08-20T11:21:37;97364.03;;;35.94;26.86
21869;BME280;11099;41.564;23.296;2023-08-20T11:24:04;97386.72;;;36.27;26.33
21869;BME280;11099;41.564;23.296;2023-08-20T11:26:30;97332.22;;;35.59;26.45
21869;BME280;11099;41.564;23.296;2023-08-20T11:28:55;97321.41;;;35.32;25.90
21869;BME280;11099;41.564;23.296;2023-08-20T11:31:22;97397.81;;;35.68;26.05
21869;BME280;11099;41.564;23.296;2023-08-20T11:33:49;97395.63;;;36.17;25.75
21869;BME280;11099;41.564;23.296;2023-08-20T11:36:19;97368.03;;;36.42;25.44
21869;BME280;11099;41.564;23.296;2023-08-20T11:38:52;97389.69;;;36.79;25.25
21869;BME280;11099;41.564;23.296;2023-08-20T11:41:19;97358.41;;;36.23;25.05
21869;BME280;11099;41.564;23.296;2023-08-20T11:43:46;97311.13;;;36.27;25.04
21869;BME280;11099;41.564;23.296;2023-08-20T11:46:16;97338.91;;;36.32;24.78
21869;BME280;11099;41.564;23.296;2023-08-20T11:51:38;97258.28;;;35.95;24.83
21869;BME280;11099;41.564;23.296;2023-08-20T11:54:10;97370.84;;;36.83;23.99
21869;BME280;11099;41.564;23.296;2023-08-20T11:56:35;97342.84;;;36.61;24.46
21869;BME280;11099;41.564;23.296;2023-08-20T11:59:04;97307.03;;;36.83;24.58
21869;BME280;11099;41.564;23.296;2023-08-20T12:01:32;97354.25;;;36.68;24.30
21869;BME280;11099;41.564;23.296;2023-08-20T12:04:05;97259.75;;;36.11;24.55
21869;BME280;11099;41.564;23.296;2023-08-20T12:06:31;97284.03;;;36.57;23.49
21869;BME280;11099;41.564;23.296;2023-08-20T12:08:57;97335.22;;;36.76;23.65
21869;BME280;11099;41.564;23.296;2023-08-20T12:11:25;97282.22;;;36.33;23.92
21869;BME280;11099;41.564;23.296;2023-08-20T12:13:51;97312.59;;;36.63;23.79
21869;BME280;11099;41.564;23.296;2023-08-20T12:16:17;97297.41;;;36.79;24.08
21869;BME280;11099;41.564;23.296;2023-08-20T12:18:45;97201.41;;;36.20;23.88
21869;BME280;11099;41.564;23.296;2023-08-20T12:21:10;97228.59;;;36.57;23.89
21869;BME280;11099;41.564;23.296;2023-08-20T12:23:36;97237.66;;;36.37;23.68
21869;BME280;11099;41.564;23.296;2023-08-20T12:26:02;97333.97;;;37.24;23.92
21869;BME280;11099;41.564;23.296;2023-08-20T12:28:28;97291.25;;;36.89;23.51
21869;BME280;11099;41.564;23.296;2023-08-20T12:30:54;97230.34;;;36.54;23.60
21869;BME280;11099;41.564;23.296;2023-08-20T12:33:19;97328.38;;;37.18;23.29
21869;BME280;11099;41.564;23.296;2023-08-20T12:35:46;97206.00;;;36.23;23.45
21869;BME280;11099;41.564;23.296;2023-08-20T12:38:12;97319.09;;;37.01;23.53
21869;BME280;11099;41.564;23.296;2023-08-20T12:40:38;97260.84;;;36.80;23.53
21869;BME280;11099;41.564;23.296;2023-08-20T12:43:03;97236.53;;;36.90;23.37
21869;BME280;11099;41.564;23.296;2023-08-20T12:45:29;97240.22;;;37.07;23.09
21869;BME280;11099;41.564;23.296;2023-08-20T12:47:55;97236.69;;;36.86;22.79
21869;BME280;11099;41.564;23.296;2023-08-20T12:50:20;97235.66;;;37.04;22.48
21869;BME280;11099;41.564;23.296;2023-08-20T12:52:46;97278.97;;;37.48;22.77
21869;BME280;11099;41.564;23.296;2023-08-20T12:55:14;97224.31;;;36.82;22.94
21869;BME280;11099;41.564;23.296;2023-08-20T12:57:53;97298.69;;;37.56;22.41
21869;BME280;11099;41.564;23.296;2023-08-20T13:00:20;97228.41;;;37.12;22.13
21869;BME280;11099;41.564;23.296;2023-08-20T13:02:46;97272.84;;;36.92;22.41
21869;BME280;11099;41.564;23.296;2023-08-20T13:05:12;97275.38;;;37.16;22.08